createdAt,value
2018-10-21T00:01:36.125Z,24.43
2018-10-21T00:04:06.082Z,21.47
2018-10-21T00:06:35.566Z,22.23
2018-10-21T00:09:08.751Z,22.97
2018-10-21T00:11:38.362Z,22.43
2018-10-21T00:14:08.007Z,24.23
2018-10-21T00:16:37.836Z,22.60
2018-10-21T00:19:07.478Z,22.60
2018-10-21T00:21:37.270Z,25.43
2018-10-21T00:24:06.789Z,23.10
2018-10-21T00:26:36.254Z,22.50
2018-10-21T00:29:06.057Z,24.50
2018-10-21T00:31:35.537Z,24.10
2018-10-21T00:34:05.314Z,28.37
2018-10-21T00:36:34.926Z,23.67
2018-10-21T00:39:08.405Z,25.33
2018-10-21T00:41:37.855Z,23.17
2018-10-21T00:44:07.466Z,22.53
2018-10-21T00:46:36.959Z,21.97
2018-10-21T00:49:06.825Z,23.50
2018-10-21T00:51:36.298Z,21.53
2018-10-21T00:54:10.422Z,21.70
2018-10-21T00:56:40.680Z,22.60
2018-10-21T00:59:10.887Z,20.60
2018-10-21T01:01:40.571Z,22.27
2018-10-21T01:04:10.419Z,23.90
2018-10-21T01:06:40.294Z,21.17
2018-10-21T01:09:11.851Z,25.30
2018-10-21T01:11:42.347Z,23.03
2018-10-21T01:14:11.858Z,21.07
2018-10-21T01:16:41.345Z,21.93
2018-10-21T01:19:10.813Z,22.87
2018-10-21T01:21:40.277Z,24.47
2018-10-21T01:24:09.898Z,21.07
2018-10-21T01:26:39.373Z,22.47
2018-10-21T01:29:08.869Z,23.27
2018-10-21T01:31:41.042Z,23.07
2018-10-21T01:34:10.544Z,23.00
2018-10-21T01:36:40.163Z,23.70
2018-10-21T01:39:11.303Z,28.30
2018-10-21T01:41:41.349Z,22.93
2018-10-21T01:44:10.809Z,21.73
2018-10-21T01:46:40.482Z,22.60
2018-10-21T01:49:10.946Z,21.50
2018-10-21T01:51:40.453Z,23.93
2018-10-21T01:54:09.924Z,24.50
2018-10-21T01:56:39.381Z,23.73
2018-10-21T01:59:08.854Z,24.17
2018-10-21T02:01:38.306Z,23.20
2018-10-21T02:04:07.794Z,23.30
2018-10-21T02:06:37.262Z,22.03
2018-10-21T02:09:07.250Z,20.80
2018-10-21T02:11:36.722Z,23.33
2018-10-21T02:14:06.428Z,23.53
2018-10-21T02:16:35.877Z,23.80
2018-10-21T02:19:05.376Z,21.50
2018-10-21T02:21:34.846Z,22.37
2018-10-21T02:24:04.331Z,21.10
2018-10-21T02:26:33.848Z,25.03
2018-10-21T02:29:03.383Z,21.67
2018-10-21T02:31:32.873Z,20.63
2018-10-21T02:34:02.358Z,21.23
2018-10-21T02:36:31.869Z,22.30
2018-10-21T02:39:01.390Z,24.97
2018-10-21T02:41:43.006Z,25.07
2018-10-21T02:44:14.190Z,24.20
2018-10-21T02:46:44.269Z,23.63
2018-10-21T02:49:14.511Z,24.70
2018-10-21T02:51:44.096Z,23.90
2018-10-21T02:54:13.629Z,27.43
2018-10-21T02:56:43.431Z,24.70
2018-10-21T02:59:12.903Z,24.03
2018-10-21T03:01:42.370Z,24.77
2018-10-21T03:04:11.842Z,25.03
2018-10-21T03:06:41.341Z,25.97
2018-10-21T03:09:10.931Z,23.70
2018-10-21T03:11:40.427Z,26.67
2018-10-21T03:14:09.888Z,27.60
2018-10-21T03:16:39.465Z,27.30
2018-10-21T03:19:09.053Z,29.73
2018-10-21T03:21:38.570Z,30.80
2018-10-21T03:24:08.057Z,37.07
2018-10-21T03:26:37.541Z,37.03
2018-10-21T03:29:07.159Z,35.07
2018-10-21T03:31:36.637Z,35.67
2018-10-21T03:34:06.333Z,39.60
2018-10-21T03:36:35.667Z,35.03
2018-10-21T03:39:07.419Z,37.23
2018-10-21T03:41:37.024Z,33.87
2018-10-21T03:44:07.746Z,32.53
2018-10-21T03:46:37.280Z,35.63
2018-10-21T03:49:07.379Z,33.70
2018-10-21T03:51:37.428Z,34.20
2018-10-21T03:54:06.909Z,34.57
2018-10-21T03:56:36.354Z,33.33
2018-10-21T03:59:05.922Z,32.37
2018-10-21T04:01:35.390Z,30.60
2018-10-21T04:04:06.985Z,32.63
2018-10-21T04:06:36.422Z,33.57
2018-10-21T04:09:07.961Z,33.43
2018-10-21T04:11:37.413Z,31.37
2018-10-21T04:14:07.190Z,30.13
2018-10-21T04:16:36.723Z,32.40
2018-10-21T04:19:07.092Z,30.53
2018-10-21T04:21:36.542Z,29.27
2018-10-21T04:24:06.087Z,32.37
2018-10-21T04:26:35.561Z,34.30
2018-10-21T04:29:05.079Z,28.80
2018-10-21T04:31:35.927Z,30.00
2018-10-21T04:34:05.672Z,33.00
2018-10-21T04:36:35.834Z,27.13
2018-10-21T04:40:17.004Z,27.17
2018-10-21T04:42:47.069Z,28.50
2018-10-21T04:45:18.032Z,27.83
2018-10-21T04:47:47.562Z,29.17
2018-10-21T04:50:17.010Z,27.07
2018-10-21T04:52:46.550Z,27.33
2018-10-21T04:55:16.747Z,26.07
2018-10-21T04:57:47.825Z,26.77
2018-10-21T05:00:18.825Z,29.37
2018-10-21T05:02:48.350Z,28.93
2018-10-21T05:05:18.306Z,26.43
2018-10-21T05:07:49.606Z,26.77
2018-10-21T05:10:25.586Z,25.33
2018-10-21T05:12:55.253Z,26.30
2018-10-21T05:15:25.691Z,26.47
2018-10-21T05:17:55.818Z,28.00
2018-10-21T05:20:25.278Z,29.50
2018-10-21T05:22:54.922Z,22.03
2018-10-21T05:25:24.630Z,24.90
2018-10-21T05:27:54.373Z,24.03
2018-10-21T05:30:23.882Z,26.97
2018-10-21T05:32:53.381Z,25.87
2018-10-21T05:35:22.887Z,25.43
2018-10-21T05:37:52.422Z,26.90
2018-10-21T05:40:22.725Z,28.50
2018-10-21T05:42:52.505Z,30.43
2018-10-21T05:45:21.974Z,27.90
2018-10-21T05:47:51.496Z,27.83
2018-10-21T05:50:20.953Z,32.17
2018-10-21T05:52:50.413Z,30.33
2018-10-21T05:55:19.862Z,29.60
2018-10-21T05:57:49.352Z,30.00
2018-10-21T06:00:20.050Z,30.60
2018-10-21T06:02:49.558Z,27.33
2018-10-21T06:05:45.892Z,33.20
2018-10-21T06:08:16.008Z,31.30
2018-10-21T06:10:45.831Z,33.00
2018-10-21T06:13:15.354Z,32.30
2018-10-21T06:15:44.861Z,30.47
2018-10-21T06:18:17.035Z,28.73
2018-10-21T06:20:48.878Z,29.73
2018-10-21T06:23:18.339Z,29.33
2018-10-21T06:25:47.797Z,30.93
2018-10-21T06:28:17.293Z,32.53
2018-10-21T06:30:46.771Z,29.00
2018-10-21T06:33:16.634Z,30.57
2018-10-21T06:35:46.069Z,27.23
2018-10-21T06:38:16.424Z,26.73
2018-10-21T06:40:45.909Z,27.10
2018-10-21T06:43:15.403Z,27.07
2018-10-21T06:45:44.929Z,27.40
2018-10-21T06:48:15.374Z,26.93
2018-10-21T06:50:44.825Z,26.10
2018-10-21T06:53:14.294Z,27.77
2018-10-21T06:55:44.114Z,26.67
2018-10-21T06:58:13.570Z,24.80
2018-10-21T07:00:43.156Z,29.13
2018-10-21T07:03:12.746Z,24.50
2018-10-21T07:06:21.788Z,29.83
2018-10-21T07:08:52.519Z,24.87
2018-10-21T07:11:22.178Z,25.13
2018-10-21T07:13:51.848Z,27.27
2018-10-21T07:16:21.533Z,24.03
2018-10-21T07:18:51.711Z,25.10
2018-10-21T07:21:21.377Z,25.67
2018-10-21T07:23:50.966Z,26.10
2018-10-21T07:26:20.551Z,26.47
2018-10-21T07:28:50.129Z,26.23
2018-10-21T07:31:19.615Z,25.47
2018-10-21T07:33:49.153Z,23.33
2018-10-21T07:36:18.629Z,22.17
2018-10-21T07:38:48.122Z,22.90
2018-10-21T07:41:17.598Z,22.77
2018-10-21T07:43:47.098Z,23.60
2018-10-21T07:46:18.095Z,22.43
2018-10-21T07:48:47.597Z,22.30
2018-10-21T07:51:17.145Z,21.33
2018-10-21T07:53:46.632Z,18.77
2018-10-21T07:56:17.665Z,19.97
2018-10-21T07:58:47.154Z,11.53
2018-10-21T08:01:16.630Z,10.83
2018-10-21T08:03:46.110Z,9.70
2018-10-21T08:06:28.090Z,9.97
2018-10-21T08:08:57.612Z,9.97
2018-10-21T08:11:27.062Z,9.90
2018-10-21T08:13:56.524Z,9.30
2018-10-21T08:16:25.990Z,9.70
2018-10-21T08:18:55.461Z,10.63
2018-10-21T08:21:24.941Z,12.47
2018-10-21T08:23:54.425Z,10.07
2018-10-21T08:26:24.666Z,9.33
2018-10-21T08:28:54.863Z,17.00
2018-10-21T08:31:24.459Z,14.57
2018-10-21T08:33:54.071Z,9.50
2018-10-21T08:36:23.574Z,10.33
2018-10-21T08:38:53.110Z,9.67
2018-10-21T08:41:22.773Z,10.17
2018-10-21T08:43:52.294Z,9.33
2018-10-21T08:46:22.003Z,9.50
2018-10-21T08:48:51.376Z,8.73
2018-10-21T08:51:21.886Z,11.70
2018-10-21T08:53:51.941Z,9.07
2018-10-21T08:56:21.475Z,9.53
2018-10-21T08:58:51.063Z,11.73
2018-10-21T09:01:20.572Z,9.20
2018-10-21T09:03:50.174Z,9.03
2018-10-21T09:06:20.603Z,8.63
2018-10-21T09:08:50.371Z,9.23
2018-10-21T09:11:20.695Z,7.60
2018-10-21T09:13:50.219Z,6.10
2018-10-21T09:16:19.929Z,6.23
2018-10-21T09:18:49.384Z,7.53
2018-10-21T09:21:18.887Z,6.97
2018-10-21T09:23:48.441Z,6.33
2018-10-21T09:26:17.968Z,7.23
2018-10-21T09:28:47.538Z,6.50
2018-10-21T09:31:17.302Z,5.93
2018-10-21T09:33:46.794Z,7.77
2018-10-21T09:36:17.372Z,7.23
2018-10-21T09:38:47.049Z,7.93
2018-10-21T09:41:16.598Z,6.87
2018-10-21T09:43:46.153Z,7.33
2018-10-21T09:46:16.186Z,9.47
2018-10-21T09:48:47.084Z,7.73
2018-10-21T09:51:16.642Z,8.13
2018-10-21T09:53:46.170Z,8.13
2018-10-21T09:56:15.692Z,9.43
2018-10-21T09:58:45.327Z,7.30
2018-10-21T10:01:20.048Z,7.97
2018-10-21T10:03:49.623Z,10.10
2018-10-21T10:06:19.316Z,6.70
2018-10-21T10:08:48.866Z,8.00
2018-10-21T10:11:18.369Z,5.87
2018-10-21T10:13:48.658Z,2.90
2018-10-21T10:16:18.180Z,2.10
2018-10-21T10:18:47.907Z,2.60
2018-10-21T10:21:17.442Z,2.97
2018-10-21T10:23:47.038Z,2.43
2018-10-21T10:26:16.546Z,1.10
2018-10-21T10:28:46.134Z,1.10
2018-10-21T10:31:15.716Z,1.33
2018-10-21T10:33:45.264Z,1.20
2018-10-21T10:36:14.918Z,0.97
2018-10-21T10:38:44.415Z,1.20
2018-10-21T10:41:14.055Z,1.20
2018-10-21T10:43:43.556Z,0.80
2018-10-21T10:46:13.281Z,1.20
2018-10-21T10:48:42.659Z,1.57
2018-10-21T10:51:12.162Z,1.10
2018-10-21T10:53:42.207Z,0.80
2018-10-21T10:56:11.711Z,0.80
2018-10-21T10:58:42.632Z,1.10
2018-10-21T11:01:13.303Z,1.93
2018-10-21T11:03:42.766Z,2.47
2018-10-21T11:06:12.318Z,1.03
2018-10-21T11:08:41.754Z,0.90
2018-10-21T11:11:11.230Z,0.97
2018-10-21T11:13:42.744Z,1.37
2018-10-21T11:16:12.482Z,1.80
2018-10-21T11:18:41.961Z,2.10
2018-10-21T11:21:11.423Z,1.33
2018-10-21T11:23:41.646Z,0.90
2018-10-21T11:26:11.149Z,1.10
2018-10-21T11:28:40.654Z,2.17
2018-10-21T11:31:11.310Z,0.90
2018-10-21T11:33:40.986Z,1.50
2018-10-21T11:36:10.514Z,1.40
2018-10-21T11:38:40.076Z,3.37
2018-10-21T11:41:09.684Z,1.33
2018-10-21T11:43:39.358Z,1.20
2018-10-21T11:46:09.375Z,1.20
2018-10-21T11:48:38.997Z,1.00
2018-10-21T11:51:08.498Z,1.10
2018-10-21T11:53:38.026Z,1.23
2018-10-21T11:56:08.042Z,1.60
2018-10-21T11:58:39.514Z,1.10
2018-10-21T12:01:09.148Z,1.40
2018-10-21T12:03:38.737Z,3.67
2018-10-21T12:06:08.202Z,1.33
2018-10-21T12:08:37.695Z,1.30
2018-10-21T12:11:07.158Z,1.60
2018-10-21T12:13:36.663Z,1.37
2018-10-21T12:16:06.533Z,2.33
2018-10-21T12:18:36.047Z,1.90
2018-10-21T12:21:05.773Z,0.77
2018-10-21T12:23:35.415Z,0.90
2018-10-21T12:26:05.223Z,1.10
2018-10-21T12:28:34.709Z,1.07
2018-10-21T12:31:04.218Z,0.90
2018-10-21T12:33:37.902Z,0.90
2018-10-21T12:36:07.483Z,1.40
2018-10-21T12:38:36.994Z,0.87
2018-10-21T12:41:06.493Z,0.90
2018-10-21T12:43:36.005Z,0.90
2018-10-21T12:46:05.892Z,0.70
2018-10-21T12:48:35.502Z,0.90
2018-10-21T12:51:05.095Z,0.83
2018-10-21T12:53:34.595Z,1.30
2018-10-21T12:56:04.094Z,1.03
2018-10-21T12:58:33.577Z,0.80
2018-10-21T13:01:03.374Z,1.57
2018-10-21T13:03:33.066Z,0.70
2018-10-21T13:06:02.873Z,0.83
2018-10-21T13:08:32.427Z,0.50
2018-10-21T13:11:02.040Z,0.50
2018-10-21T13:13:31.686Z,0.60
2018-10-21T13:16:01.150Z,0.93
2018-10-21T13:18:30.590Z,0.60
2018-10-21T13:21:00.935Z,0.70
2018-10-21T13:23:31.402Z,0.90
2018-10-21T13:26:01.090Z,0.80
2018-10-21T13:28:30.699Z,0.70
2018-10-21T13:31:00.195Z,1.00
2018-10-21T13:33:29.697Z,0.70
2018-10-21T13:35:59.164Z,0.60
2018-10-21T13:38:28.646Z,1.07
2018-10-21T13:40:58.130Z,0.67
2018-10-21T13:43:27.607Z,0.73
2018-10-21T13:45:57.160Z,2.00
2018-10-21T13:48:26.661Z,1.17
2018-10-21T13:50:57.410Z,0.80
2018-10-21T13:53:27.027Z,0.80
2018-10-21T13:55:56.610Z,1.20
2018-10-21T13:58:26.078Z,0.90
2018-10-21T14:00:56.237Z,0.63
2018-10-21T14:03:25.661Z,0.80
2018-10-21T14:05:55.173Z,0.70
2018-10-21T14:08:24.680Z,0.70
2018-10-21T14:10:54.196Z,2.67
2018-10-21T14:13:23.695Z,2.83
2018-10-21T14:15:53.161Z,1.13
2018-10-21T14:18:22.668Z,2.10
2018-10-21T14:20:52.198Z,1.40
2018-10-21T14:23:21.715Z,1.30
2018-10-21T14:25:51.213Z,1.40
2018-10-21T14:28:20.706Z,1.30
2018-10-21T14:30:50.246Z,1.77
2018-10-21T14:33:21.254Z,1.40
2018-10-21T14:35:50.757Z,1.00
2018-10-21T14:38:21.866Z,1.57
2018-10-21T14:40:51.395Z,2.33
2018-10-21T14:43:20.878Z,2.40
2018-10-21T14:45:50.516Z,1.63
2018-10-21T14:48:20.233Z,1.73
2018-10-21T14:50:49.760Z,2.80
2018-10-21T14:53:19.309Z,3.03
2018-10-21T14:55:48.847Z,2.30
2018-10-21T14:58:19.134Z,2.13
2018-10-21T15:00:48.626Z,1.60
2018-10-21T15:03:18.179Z,1.43
2018-10-21T15:05:47.734Z,2.13
2018-10-21T15:08:17.561Z,2.10
2018-10-21T15:10:47.653Z,2.13
2018-10-21T15:13:17.528Z,2.10
2018-10-21T15:15:47.684Z,2.80
2018-10-21T15:18:17.154Z,5.20
2018-10-21T15:20:47.351Z,3.87
2018-10-21T15:23:16.945Z,16.90
2018-10-21T15:25:46.450Z,5.27
2018-10-21T15:28:16.115Z,4.90
2018-10-21T15:30:45.619Z,5.03
2018-10-21T15:33:15.211Z,4.00
2018-10-21T15:35:46.090Z,5.97
2018-10-21T15:38:15.595Z,7.47
2018-10-21T15:40:45.186Z,5.43
2018-10-21T15:43:16.376Z,6.10
2018-10-21T15:45:46.014Z,5.10
2018-10-21T15:48:15.585Z,6.50
2018-10-21T15:50:46.979Z,8.40
2018-10-21T15:53:16.506Z,8.07
2018-10-21T15:55:46.277Z,8.30
2018-10-21T15:58:15.861Z,6.10
2018-10-21T16:00:45.310Z,6.47
2018-10-21T16:03:14.938Z,6.20
2018-10-21T16:05:44.562Z,7.13
2018-10-21T16:08:14.261Z,8.50
2018-10-21T16:10:43.711Z,7.50
2018-10-21T16:13:13.195Z,7.07
2018-10-21T16:15:43.067Z,5.70
2018-10-21T16:18:12.604Z,8.97
2018-10-21T16:20:42.115Z,8.73
2018-10-21T16:23:12.608Z,8.30
2018-10-21T16:25:44.376Z,9.40
2018-10-21T16:28:13.923Z,20.13
2018-10-21T16:30:43.476Z,7.53
2018-10-21T16:33:12.993Z,8.47
2018-10-21T16:35:42.466Z,7.73
2018-10-21T16:38:12.009Z,7.40
2018-10-21T16:40:41.555Z,11.63
2018-10-21T16:43:11.062Z,13.07
2018-10-21T16:45:41.624Z,10.10
2018-10-21T16:48:11.201Z,9.47
2018-10-21T16:50:40.722Z,7.93
2018-10-21T16:53:11.323Z,8.87
2018-10-21T16:55:41.197Z,10.37
2018-10-21T16:58:11.086Z,14.47
2018-10-21T17:00:40.787Z,14.87
2018-10-21T17:03:10.181Z,14.13
2018-10-21T17:05:39.845Z,13.80
2018-10-21T17:08:09.368Z,14.27
2018-10-21T17:10:39.399Z,14.20
2018-10-21T17:13:08.865Z,12.00
2018-10-21T17:15:38.755Z,8.77
2018-10-21T17:18:08.226Z,8.70
2018-10-21T17:20:37.742Z,7.00
2018-10-21T17:23:07.266Z,8.30
2018-10-21T17:25:37.265Z,10.60
2018-10-21T17:28:12.675Z,9.67
2018-10-21T17:30:42.083Z,8.73
2018-10-21T17:33:12.006Z,8.53
2018-10-21T17:35:41.530Z,8.73
2018-10-21T17:38:11.200Z,9.97
2018-10-21T17:40:40.862Z,11.00
2018-10-21T17:43:10.448Z,11.50
2018-10-21T17:45:39.941Z,9.40
2018-10-21T17:48:09.500Z,11.53
2018-10-21T17:50:39.872Z,10.30
2018-10-21T17:53:09.333Z,9.60
2018-10-21T17:55:38.853Z,12.33
2018-10-21T17:58:08.387Z,16.63
2018-10-21T18:00:37.958Z,16.90
2018-10-21T18:03:07.492Z,16.73
2018-10-21T18:05:38.006Z,14.80
2018-10-21T18:08:07.602Z,20.73
2018-10-21T18:10:37.431Z,15.60
2018-10-21T18:13:07.144Z,16.03
2018-10-21T18:15:37.062Z,12.53
2018-10-21T18:18:06.679Z,15.63
2018-10-21T18:20:37.554Z,14.93
2018-10-21T18:23:07.220Z,16.90
2018-10-21T18:25:36.761Z,15.57
2018-10-21T18:28:06.386Z,13.50
2018-10-21T18:30:35.952Z,16.20
2018-10-21T18:33:05.774Z,15.50
2018-10-21T18:35:35.183Z,14.10
2018-10-21T18:38:04.729Z,13.70
2018-10-21T18:40:34.255Z,18.17
2018-10-21T18:43:03.770Z,16.97
2018-10-21T18:45:34.683Z,18.67
2018-10-21T18:48:04.155Z,18.90
2018-10-21T18:50:35.634Z,17.03
2018-10-21T18:53:05.258Z,15.27
2018-10-21T18:55:34.803Z,17.33
2018-10-21T18:58:04.372Z,16.30
2018-10-21T19:00:33.883Z,14.67
2018-10-21T19:03:03.358Z,13.13
2018-10-21T19:05:32.874Z,13.73
2018-10-21T19:08:02.467Z,15.60
2018-10-21T19:10:32.354Z,17.83
2018-10-21T19:13:02.223Z,14.17
2018-10-21T19:15:32.014Z,13.77
2018-10-21T19:18:01.555Z,12.37
2018-10-21T19:20:31.022Z,13.83
2018-10-21T19:23:00.498Z,15.30
2018-10-21T19:25:29.978Z,16.00
2018-10-21T19:27:59.462Z,14.60
2018-10-21T19:30:28.955Z,14.10
2018-10-21T19:32:58.447Z,15.13
2018-10-21T19:35:27.945Z,13.60
2018-10-21T19:37:57.426Z,15.77
2018-10-21T19:40:26.955Z,13.83
2018-10-21T19:42:56.476Z,12.37
2018-10-21T19:45:25.985Z,13.47
2018-10-21T19:47:55.588Z,13.13
2018-10-21T19:50:53.898Z,10.57
2018-10-21T19:53:23.410Z,14.87
2018-10-21T19:55:53.374Z,16.23
2018-10-21T19:58:23.030Z,14.87
2018-10-21T20:00:52.566Z,14.93
2018-10-21T20:03:22.065Z,15.10
2018-10-21T20:05:52.834Z,16.70
2018-10-21T20:08:22.367Z,16.23
2018-10-21T20:10:52.190Z,25.23
2018-10-21T20:13:21.712Z,19.23
2018-10-21T20:15:56.213Z,17.50
2018-10-21T20:18:25.717Z,21.00
2018-10-21T20:20:55.758Z,15.90
2018-10-21T20:23:25.239Z,13.80
2018-10-21T20:25:54.718Z,15.40
2018-10-21T20:28:24.198Z,14.63
2018-10-21T20:30:53.928Z,17.50
2018-10-21T20:33:23.555Z,12.40
2018-10-21T20:35:53.131Z,10.63
2018-10-21T20:38:23.232Z,14.40
2018-10-21T20:40:52.962Z,17.97
2018-10-21T20:43:22.441Z,18.00
2018-10-21T20:45:52.742Z,19.83
2018-10-21T20:48:22.264Z,14.87
2018-10-21T20:50:51.745Z,12.00
2018-10-21T20:54:27.555Z,13.37
2018-10-21T20:56:57.336Z,11.43
2018-10-21T20:59:27.701Z,10.97
2018-10-21T21:01:57.156Z,11.83
2018-10-21T21:04:26.641Z,12.97
2018-10-21T21:06:56.082Z,12.30
2018-10-21T21:09:25.636Z,12.57
2018-10-21T21:11:55.227Z,13.13
2018-10-21T21:14:24.698Z,11.43
2018-10-21T21:16:54.170Z,12.00
2018-10-21T21:19:24.044Z,12.43
2018-10-21T21:21:55.355Z,12.13
2018-10-21T21:24:26.762Z,12.17
2018-10-21T21:26:57.149Z,13.13
2018-10-21T21:29:27.138Z,10.97
2018-10-21T21:31:56.598Z,9.20
2018-10-21T21:34:26.067Z,12.30
2018-10-21T21:36:55.541Z,9.93
2018-10-21T21:39:25.010Z,10.07
2018-10-21T21:41:54.549Z,9.70
2018-10-21T21:44:24.012Z,9.50
2018-10-21T21:46:53.465Z,11.07
2018-10-21T21:49:22.962Z,14.87
2018-10-21T21:51:52.413Z,12.33
2018-10-21T21:54:21.871Z,9.87
2018-10-21T21:56:51.581Z,10.43
2018-10-21T21:59:21.034Z,10.90
2018-10-21T22:01:50.485Z,10.77
2018-10-21T22:04:19.963Z,13.87
2018-10-21T22:06:49.457Z,15.17
2018-10-21T22:09:18.921Z,10.87
2018-10-21T22:11:48.397Z,9.03
2018-10-21T22:14:17.881Z,10.93
2018-10-21T22:16:47.358Z,11.23
2018-10-21T22:19:16.899Z,11.10
2018-10-21T22:21:46.370Z,10.40
2018-10-21T22:24:15.986Z,11.03
2018-10-21T22:26:45.969Z,8.93
2018-10-21T22:29:15.486Z,10.93
2018-10-21T22:31:47.041Z,10.53
2018-10-21T22:34:17.493Z,10.13
2018-10-21T22:36:46.889Z,10.57
2018-10-21T22:39:16.368Z,9.20
2018-10-21T22:41:45.864Z,9.40
2018-10-21T22:44:15.321Z,9.03
2018-10-21T22:46:44.837Z,9.83
2018-10-21T22:49:14.362Z,8.33
2018-10-21T22:51:43.809Z,9.03
2018-10-21T22:54:13.319Z,8.17
2018-10-21T22:56:42.749Z,9.63
2018-10-21T22:59:12.197Z,8.57
2018-10-21T23:01:41.658Z,6.57
2018-10-21T23:04:11.175Z,6.80
2018-10-21T23:06:41.465Z,7.40
2018-10-21T23:09:12.106Z,7.67
2018-10-21T23:11:42.122Z,6.83
2018-10-21T23:14:11.829Z,5.97
2018-10-21T23:16:41.345Z,6.37
2018-10-21T23:19:21.921Z,8.13
2018-10-21T23:21:51.365Z,6.80
2018-10-21T23:24:20.866Z,9.07
2018-10-21T23:26:50.303Z,6.73
2018-10-21T23:29:19.738Z,10.83
2018-10-21T23:31:49.281Z,8.07
2018-10-21T23:34:18.847Z,6.17
2018-10-21T23:36:48.266Z,11.77
2018-10-21T23:39:17.770Z,9.70
2018-10-21T23:41:47.345Z,6.87
2018-10-21T23:44:16.945Z,8.07
2018-10-21T23:46:46.492Z,7.03
2018-10-21T23:49:16.290Z,6.37
2018-10-21T23:51:45.769Z,8.37
2018-10-21T23:54:15.359Z,9.23
2018-10-21T23:56:45.711Z,7.20
2018-10-21T23:59:15.590Z,6.47
